sensor_id;sensor_type;location;lat;lon;timestamp;pressure;altitude;pressure_sealevel;temperature
15680;BMP180;15488;48.114;11.532;2022-11-14T00:00:43;95378.00;;;13.40
15680;BMP180;15488;48.114;11.532;2022-11-14T00:03:13;95380.00;;;13.40
15680;BMP180;15488;48.114;11.532;2022-11-14T00:05:42;95375.00;;;13.40
15680;BMP180;15488;48.114;11.532;2022-11-14T00:08:15;95374.00;;;13.40
15680;BMP180;15488;48.114;11.532;2022-11-14T00:10:45;95366.00;;;13.40
15680;BMP180;15488;48.114;11.532;2022-11-14T00:13:13;95370.00;;;13.40
15680;BMP180;15488;48.114;11.532;2022-11-14T00:15:41;95366.00;;;13.40
15680;BMP180;15488;48.114;11.532;2022-11-14T00:18:09;95359.00;;;13.40
15680;BMP180;15488;48.114;11.532;2022-11-14T00:20:38;95352.00;;;13.30
15680;BMP180;15488;48.114;11.532;2022-11-14T00:23:05;95354.00;;;13.30
15680;BMP180;15488;48.114;11.532;2022-11-14T00:25:33;95352.00;;;13.30
15680;BMP180;15488;48.114;11.532;2022-11-14T00:28:00;95347.00;;;13.30
15680;BMP180;15488;48.114;11.532;2022-11-14T00:30:28;95352.00;;;13.30
15680;BMP180;15488;48.114;11.532;2022-11-14T00:32:58;95342.00;;;13.30
15680;BMP180;15488;48.114;11.532;2022-11-14T00:35:26;95339.00;;;13.30
15680;BMP180;15488;48.114;11.532;2022-11-14T00:37:55;95339.00;;;13.30
15680;BMP180;15488;48.114;11.532;2022-11-14T00:40:22;95333.00;;;13.30
15680;BMP180;15488;48.114;11.532;2022-11-14T00:42:50;95340.00;;;13.30
15680;BMP180;15488;48.114;11.532;2022-11-14T00:45:17;95339.00;;;13.30
15680;BMP180;15488;48.114;11.532;2022-11-14T00:47:45;95228.00;;;13.30
15680;BMP180;15488;48.114;11.532;2022-11-14T00:50:12;95357.00;;;13.30
15680;BMP180;15488;48.114;11.532;2022-11-14T00:52:40;95356.00;;;13.30
15680;BMP180;15488;48.114;11.532;2022-11-14T00:55:09;95366.00;;;13.30
15680;BMP180;15488;48.114;11.532;2022-11-14T00:57:36;95357.00;;;13.30
15680;BMP180;15488;48.114;11.532;2022-11-14T01:00:05;95354.00;;;13.30
15680;BMP180;15488;48.114;11.532;2022-11-14T01:02:33;95350.00;;;13.30
15680;BMP180;15488;48.114;11.532;2022-11-14T01:05:00;95346.00;;;13.30
15680;BMP180;15488;48.114;11.532;2022-11-14T01:07:28;95357.00;;;13.30
15680;BMP180;15488;48.114;11.532;2022-11-14T01:09:55;95366.00;;;13.30
15680;BMP180;15488;48.114;11.532;2022-11-14T01:12:24;95366.00;;;13.30
15680;BMP180;15488;48.114;11.532;2022-11-14T01:14:52;95355.00;;;13.30
15680;BMP180;15488;48.114;11.532;2022-11-14T01:17:19;95349.00;;;13.30
15680;BMP180;15488;48.114;11.532;2022-11-14T01:19:47;95356.00;;;13.30
15680;BMP180;15488;48.114;11.532;2022-11-14T01:22:14;95362.00;;;13.30
15680;BMP180;15488;48.114;11.532;2022-11-14T01:24:41;95357.00;;;13.20
15680;BMP180;15488;48.114;11.532;2022-11-14T01:27:09;95363.00;;;13.20
15680;BMP180;15488;48.114;11.532;2022-11-14T01:29:38;95364.00;;;13.20
15680;BMP180;15488;48.114;11.532;2022-11-14T01:32:05;95369.00;;;13.20
15680;BMP180;15488;48.114;11.532;2022-11-14T01:34:32;95376.00;;;13.20
15680;BMP180;15488;48.114;11.532;2022-11-14T01:37:00;95378.00;;;13.20
15680;BMP180;15488;48.114;11.532;2022-11-14T01:39:27;95364.00;;;13.20
15680;BMP180;15488;48.114;11.532;2022-11-14T01:41:55;95353.00;;;13.10
15680;BMP180;15488;48.114;11.532;2022-11-14T01:44:45;95359.00;;;13.10
15680;BMP180;15488;48.114;11.532;2022-11-14T01:47:15;95347.00;;;13.10
15680;BMP180;15488;48.114;11.532;2022-11-14T01:49:46;95341.00;;;13.10
15680;BMP180;15488;48.114;11.532;2022-11-14T01:52:16;95337.00;;;13.10
15680;BMP180;15488;48.114;11.532;2022-11-14T01:54:47;95335.00;;;13.00
15680;BMP180;15488;48.114;11.532;2022-11-14T01:57:17;95338.00;;;13.00
15680;BMP180;15488;48.114;11.532;2022-11-14T01:59:50;95334.00;;;13.00
15680;BMP180;15488;48.114;11.532;2022-11-14T02:02:19;95335.00;;;12.90
15680;BMP180;15488;48.114;11.532;2022-11-14T02:04:50;95338.00;;;12.90
15680;BMP180;15488;48.114;11.532;2022-11-14T02:07:18;95329.00;;;12.90
15680;BMP180;15488;48.114;11.532;2022-11-14T02:09:47;95315.00;;;12.90
15680;BMP180;15488;48.114;11.532;2022-11-14T02:12:17;95319.00;;;12.90
15680;BMP180;15488;48.114;11.532;2022-11-14T02:14:48;95323.00;;;12.80
15680;BMP180;15488;48.114;11.532;2022-11-14T02:17:17;95319.00;;;12.80
15680;BMP180;15488;48.114;11.532;2022-11-14T02:19:47;95325.00;;;12.80
15680;BMP180;15488;48.114;11.532;2022-11-14T02:22:17;95317.00;;;12.80
15680;BMP180;15488;48.114;11.532;2022-11-14T02:24:45;95317.00;;;12.80
15680;BMP180;15488;48.114;11.532;2022-11-14T02:27:13;95309.00;;;12.80
15680;BMP180;15488;48.114;11.532;2022-11-14T02:29:41;95302.00;;;12.80
15680;BMP180;15488;48.114;11.532;2022-11-14T02:32:09;95309.00;;;12.80
15680;BMP180;15488;48.114;11.532;2022-11-14T02:34:36;95317.00;;;12.70
15680;BMP180;15488;48.114;11.532;2022-11-14T02:37:04;95322.00;;;12.70
15680;BMP180;15488;48.114;11.532;2022-11-14T02:39:33;95338.00;;;12.70
15680;BMP180;15488;48.114;11.532;2022-11-14T02:42:01;95341.00;;;12.70
15680;BMP180;15488;48.114;11.532;2022-11-14T02:44:28;95331.00;;;12.70
15680;BMP180;15488;48.114;11.532;2022-11-14T02:46:56;95324.00;;;12.70
15680;BMP180;15488;48.114;11.532;2022-11-14T02:49:23;95314.00;;;12.70
15680;BMP180;15488;48.114;11.532;2022-11-14T02:51:50;95304.00;;;12.70
15680;BMP180;15488;48.114;11.532;2022-11-14T02:54:18;95305.00;;;12.70
15680;BMP180;15488;48.114;11.532;2022-11-14T02:56:47;95299.00;;;12.70
15680;BMP180;15488;48.114;11.532;2022-11-14T02:59:14;95298.00;;;12.80
15680;BMP180;15488;48.114;11.532;2022-11-14T03:01:41;95284.00;;;12.80
15680;BMP180;15488;48.114;11.532;2022-11-14T03:04:09;95281.00;;;12.80
15680;BMP180;15488;48.114;11.532;2022-11-14T03:06:36;95283.00;;;12.80
15680;BMP180;15488;48.114;11.532;2022-11-14T03:09:04;95283.00;;;12.80
15680;BMP180;15488;48.114;11.532;2022-11-14T03:11:32;95293.00;;;12.80
15680;BMP180;15488;48.114;11.532;2022-11-14T03:14:00;95284.00;;;12.80
15680;BMP180;15488;48.114;11.532;2022-11-14T03:16:28;95277.00;;;12.80
15680;BMP180;15488;48.114;11.532;2022-11-14T03:18:55;95276.00;;;12.80
15680;BMP180;15488;48.114;11.532;2022-11-14T03:21:23;95276.00;;;12.80
15680;BMP180;15488;48.114;11.532;2022-11-14T03:23:50;95291.00;;;12.80
15680;BMP180;15488;48.114;11.532;2022-11-14T03:26:18;95285.00;;;12.80
15680;BMP180;15488;48.114;11.532;2022-11-14T03:28:45;95270.00;;;12.80
15680;BMP180;15488;48.114;11.532;2022-11-14T03:31:14;95264.00;;;12.80
15680;BMP180;15488;48.114;11.532;2022-11-14T03:33:45;95265.00;;;12.80
15680;BMP180;15488;48.114;11.532;2022-11-14T03:36:12;95257.00;;;12.80
15680;BMP180;15488;48.114;11.532;2022-11-14T03:38:41;95271.00;;;12.80
15680;BMP180;15488;48.114;11.532;2022-11-14T03:41:09;95286.00;;;12.80
15680;BMP180;15488;48.114;11.532;2022-11-14T03:43:36;95290.00;;;12.80
15680;BMP180;15488;48.114;11.532;2022-11-14T03:46:04;95289.00;;;12.80
15680;BMP180;15488;48.114;11.532;2022-11-14T03:48:33;95277.00;;;12.80
15680;BMP180;15488;48.114;11.532;2022-11-14T03:51:00;95271.00;;;12.80
15680;BMP180;15488;48.114;11.532;2022-11-14T03:53:28;95284.00;;;12.80
15680;BMP180;15488;48.114;11.532;2022-11-14T03:55:55;95299.00;;;12.80
15680;BMP180;15488;48.114;11.532;2022-11-14T03:58:22;95296.00;;;12.80
15680;BMP180;15488;48.114;11.532;2022-11-14T04:00:50;95291.00;;;12.80
15680;BMP180;15488;48.114;11.532;2022-11-14T04:03:18;95288.00;;;12.80
15680;BMP180;15488;48.114;11.532;2022-11-14T04:05:47;95276.00;;;12.50
15680;BMP180;15488;48.114;11.532;2022-11-14T04:08:15;95287.00;;;12.80
15680;BMP180;15488;48.114;11.532;2022-11-14T04:10:45;95299.00;;;12.80
15680;BMP180;15488;48.114;11.532;2022-11-14T04:13:12;95299.00;;;12.80
15680;BMP180;15488;48.114;11.532;2022-11-14T04:15:40;95293.00;;;12.80
15680;BMP180;15488;48.114;11.532;2022-11-14T04:18:07;95315.00;;;12.70
15680;BMP180;15488;48.114;11.532;2022-11-14T04:20:35;95300.00;;;12.70
15680;BMP180;15488;48.114;11.532;2022-11-14T04:23:03;95287.00;;;12.70
15680;BMP180;15488;48.114;11.532;2022-11-14T04:25:31;95285.00;;;12.70
15680;BMP180;15488;48.114;11.532;2022-11-14T04:27:58;95289.00;;;12.70
15680;BMP180;15488;48.114;11.532;2022-11-14T04:30:26;95294.00;;;12.70
15680;BMP180;15488;48.114;11.532;2022-11-14T04:32:53;95302.00;;;12.70
15680;BMP180;15488;48.114;11.532;2022-11-14T04:35:21;95296.00;;;12.70
15680;BMP180;15488;48.114;11.532;2022-11-14T04:37:48;95290.00;;;12.70
15680;BMP180;15488;48.114;11.532;2022-11-14T04:40:17;95281.00;;;12.70
15680;BMP180;15488;48.114;11.532;2022-11-14T04:42:44;95279.00;;;12.70
15680;BMP180;15488;48.114;11.532;2022-11-14T04:45:12;95270.00;;;12.70
15680;BMP180;15488;48.114;11.532;2022-11-14T04:47:41;95259.00;;;12.70
15680;BMP180;15488;48.114;11.532;2022-11-14T04:50:09;95274.00;;;12.70
15680;BMP180;15488;48.114;11.532;2022-11-14T04:52:36;95271.00;;;12.70
15680;BMP180;15488;48.114;11.532;2022-11-14T04:55:04;95278.00;;;12.70
15680;BMP180;15488;48.114;11.532;2022-11-14T04:57:33;95282.00;;;12.80
15680;BMP180;15488;48.114;11.532;2022-11-14T05:00:01;95287.00;;;12.80
15680;BMP180;15488;48.114;11.532;2022-11-14T05:02:30;95287.00;;;12.70
15680;BMP180;15488;48.114;11.532;2022-11-14T05:04:57;95286.00;;;12.70
15680;BMP180;15488;48.114;11.532;2022-11-14T05:07:25;95289.00;;;12.70
15680;BMP180;15488;48.114;11.532;2022-11-14T05:09:52;95280.00;;;12.70
15680;BMP180;15488;48.114;11.532;2022-11-14T05:12:20;95278.00;;;12.70
15680;BMP180;15488;48.114;11.532;2022-11-14T05:14:49;95283.00;;;12.70
15680;BMP180;15488;48.114;11.532;2022-11-14T05:17:16;95274.00;;;12.70
15680;BMP180;15488;48.114;11.532;2022-11-14T05:19:43;95277.00;;;12.60
15680;BMP180;15488;48.114;11.532;2022-11-14T05:22:11;95277.00;;;12.60
15680;BMP180;15488;48.114;11.532;2022-11-14T05:24:38;95274.00;;;12.60
15680;BMP180;15488;48.114;11.532;2022-11-14T05:27:06;95269.00;;;12.60
15680;BMP180;15488;48.114;11.532;2022-11-14T05:29:33;95277.00;;;12.60
15680;BMP180;15488;48.114;11.532;2022-11-14T05:32:02;95276.00;;;12.60
15680;BMP180;15488;48.114;11.532;2022-11-14T05:34:30;95273.00;;;12.60
15680;BMP180;15488;48.114;11.532;2022-11-14T05:36:57;95285.00;;;12.50
15680;BMP180;15488;48.114;11.532;2022-11-14T05:39:25;95277.00;;;12.50
15680;BMP180;15488;48.114;11.532;2022-11-14T05:41:52;95275.00;;;12.50
15680;BMP180;15488;48.114;11.532;2022-11-14T05:44:19;95285.00;;;12.50
15680;BMP180;15488;48.114;11.532;2022-11-14T05:46:47;95285.00;;;12.50
15680;BMP180;15488;48.114;11.532;2022-11-14T05:49:16;95293.00;;;12.40
15680;BMP180;15488;48.114;11.532;2022-11-14T05:51:43;95295.00;;;12.40
15680;BMP180;15488;48.114;11.532;2022-11-14T05:54:10;95298.00;;;12.40
15680;BMP180;15488;48.114;11.532;2022-11-14T05:56:38;95302.00;;;12.40
15680;BMP180;15488;48.114;11.532;2022-11-14T05:59:05;95304.00;;;12.40
15680;BMP180;15488;48.114;11.532;2022-11-14T06:01:33;95304.00;;;12.40
15680;BMP180;15488;48.114;11.532;2022-11-14T06:04:00;95310.00;;;12.40
15680;BMP180;15488;48.114;11.532;2022-11-14T06:06:33;95297.00;;;12.40
15680;BMP180;15488;48.114;11.532;2022-11-14T06:09:00;95293.00;;;12.40
15680;BMP180;15488;48.114;11.532;2022-11-14T06:11:27;95310.00;;;12.30
15680;BMP180;15488;48.114;11.532;2022-11-14T06:13:55;95322.00;;;12.40
15680;BMP180;15488;48.114;11.532;2022-11-14T06:16:22;95328.00;;;12.30
15680;BMP180;15488;48.114;11.532;2022-11-14T06:18:52;95322.00;;;12.30
15680;BMP180;15488;48.114;11.532;2022-11-14T06:21:21;95334.00;;;12.20
15680;BMP180;15488;48.114;11.532;2022-11-14T06:23:50;95329.00;;;12.20
15680;BMP180;15488;48.114;11.532;2022-11-14T06:26:21;95334.00;;;12.20
15680;BMP180;15488;48.114;11.532;2022-11-14T06:28:49;95331.00;;;12.20
15680;BMP180;15488;48.114;11.532;2022-11-14T06:31:18;95333.00;;;12.10
15680;BMP180;15488;48.114;11.532;2022-11-14T06:33:46;95324.00;;;12.10
15680;BMP180;15488;48.114;11.532;2022-11-14T06:36:13;95326.00;;;12.10
15680;BMP180;15488;48.114;11.532;2022-11-14T06:38:42;95319.00;;;12.10
15680;BMP180;15488;48.114;11.532;2022-11-14T06:41:14;95325.00;;;12.10
15680;BMP180;15488;48.114;11.532;2022-11-14T06:43:43;95326.00;;;12.10
15680;BMP180;15488;48.114;11.532;2022-11-14T06:46:12;95319.00;;;12.00
15680;BMP180;15488;48.114;11.532;2022-11-14T06:48:41;95314.00;;;12.00
15680;BMP180;15488;48.114;11.532;2022-11-14T06:51:10;95329.00;;;12.00
15680;BMP180;15488;48.114;11.532;2022-11-14T06:53:38;95329.00;;;12.00
15680;BMP180;15488;48.114;11.532;2022-11-14T06:56:08;95329.00;;;12.00
15680;BMP180;15488;48.114;11.532;2022-11-14T06:58:39;95328.00;;;12.10
15680;BMP180;15488;48.114;11.532;2022-11-14T07:01:09;95316.00;;;12.10
15680;BMP180;15488;48.114;11.532;2022-11-14T07:03:37;95315.00;;;12.10
15680;BMP180;15488;48.114;11.532;2022-11-14T07:06:06;95314.00;;;12.10
15680;BMP180;15488;48.114;11.532;2022-11-14T07:08:34;95316.00;;;12.10
15680;BMP180;15488;48.114;11.532;2022-11-14T07:11:02;95319.00;;;12.10
15680;BMP180;15488;48.114;11.532;2022-11-14T07:13:30;95319.00;;;12.10
15680;BMP180;15488;48.114;11.532;2022-11-14T07:16:00;95318.00;;;12.20
15680;BMP180;15488;48.114;11.532;2022-11-14T07:18:29;95315.00;;;12.20
15680;BMP180;15488;48.114;11.532;2022-11-14T07:20:58;95314.00;;;12.20
15680;BMP180;15488;48.114;11.532;2022-11-14T07:23:25;95320.00;;;12.30
15680;BMP180;15488;48.114;11.532;2022-11-14T07:25:53;95312.00;;;12.40
15680;BMP180;15488;48.114;11.532;2022-11-14T07:28:20;95317.00;;;12.30
15680;BMP180;15488;48.114;11.532;2022-11-14T07:30:48;95309.00;;;11.40
15680;BMP180;15488;48.114;11.532;2022-11-14T07:33:17;95328.00;;;12.40
15680;BMP180;15488;48.114;11.532;2022-11-14T07:35:44;95324.00;;;12.40
15680;BMP180;15488;48.114;11.532;2022-11-14T07:38:11;95327.00;;;12.40
15680;BMP180;15488;48.114;11.532;2022-11-14T07:40:39;95331.00;;;12.40
15680;BMP180;15488;48.114;11.532;2022-11-14T07:43:06;95333.00;;;12.50
15680;BMP180;15488;48.114;11.532;2022-11-14T07:45:34;95334.00;;;12.50
15680;BMP180;15488;48.114;11.532;2022-11-14T07:48:02;95332.00;;;12.50
15680;BMP180;15488;48.114;11.532;2022-11-14T07:50:30;95322.00;;;12.50
15680;BMP180;15488;48.114;11.532;2022-11-14T07:52:58;95316.00;;;12.60
15680;BMP180;15488;48.114;11.532;2022-11-14T07:55:25;95318.00;;;12.60
15680;BMP180;15488;48.114;11.532;2022-11-14T07:57:54;95311.00;;;12.60
15680;BMP180;15488;48.114;11.532;2022-11-14T08:00:21;95308.00;;;12.60
15680;BMP180;15488;48.114;11.532;2022-11-14T08:02:49;95310.00;;;12.70
15680;BMP180;15488;48.114;11.532;2022-11-14T08:05:16;95307.00;;;12.80
15680;BMP180;15488;48.114;11.532;2022-11-14T08:07:45;95300.00;;;12.80
15680;BMP180;15488;48.114;11.532;2022-11-14T08:10:13;95290.00;;;12.80
15680;BMP180;15488;48.114;11.532;2022-11-14T08:12:41;95284.00;;;12.80
15680;BMP180;15488;48.114;11.532;2022-11-14T08:15:10;95293.00;;;12.90
15680;BMP180;15488;48.114;11.532;2022-11-14T08:17:38;95299.00;;;12.90
15680;BMP180;15488;48.114;11.532;2022-11-14T08:20:07;95293.00;;;12.90
15680;BMP180;15488;48.114;11.532;2022-11-14T08:22:35;95284.00;;;13.00
15680;BMP180;15488;48.114;11.532;2022-11-14T08:25:06;95288.00;;;13.00
15680;BMP180;15488;48.114;11.532;2022-11-14T08:27:33;95277.00;;;13.10
15680;BMP180;15488;48.114;11.532;2022-11-14T08:30:01;95275.00;;;13.10
15680;BMP180;15488;48.114;11.532;2022-11-14T08:32:28;95284.00;;;13.10
15680;BMP180;15488;48.114;11.532;2022-11-14T08:34:55;95281.00;;;13.10
15680;BMP180;15488;48.114;11.532;2022-11-14T08:37:23;95277.00;;;13.20
15680;BMP180;15488;48.114;11.532;2022-11-14T08:39:50;95154.00;;;13.20
15680;BMP180;15488;48.114;11.532;2022-11-14T08:42:19;95278.00;;;13.20
15680;BMP180;15488;48.114;11.532;2022-11-14T08:44:47;95279.00;;;13.30
15680;BMP180;15488;48.114;11.532;2022-11-14T08:47:14;95289.00;;;13.20
15680;BMP180;15488;48.114;11.532;2022-11-14T08:49:41;95290.00;;;13.30
15680;BMP180;15488;48.114;11.532;2022-11-14T08:52:09;95293.00;;;13.30
15680;BMP180;15488;48.114;11.532;2022-11-14T08:54:36;95293.00;;;13.40
15680;BMP180;15488;48.114;11.532;2022-11-14T08:57:04;95293.00;;;13.40
15680;BMP180;15488;48.114;11.532;2022-11-14T08:59:33;95298.00;;;13.40
15680;BMP180;15488;48.114;11.532;2022-11-14T09:02:01;95292.00;;;13.40
15680;BMP180;15488;48.114;11.532;2022-11-14T09:04:29;95299.00;;;13.50
15680;BMP180;15488;48.114;11.532;2022-11-14T09:06:56;95289.00;;;13.50
15680;BMP180;15488;48.114;11.532;2022-11-14T09:09:24;95279.00;;;13.60
15680;BMP180;15488;48.114;11.532;2022-11-14T09:11:52;95279.00;;;13.60
15680;BMP180;15488;48.114;11.532;2022-11-14T09:14:19;95279.00;;;13.60
15680;BMP180;15488;48.114;11.532;2022-11-14T09:16:48;95273.00;;;13.60
15680;BMP180;15488;48.114;11.532;2022-11-14T09:19:16;95278.00;;;13.70
15680;BMP180;15488;48.114;11.532;2022-11-14T09:21:43;95285.00;;;13.70
15680;BMP180;15488;48.114;11.532;2022-11-14T09:24:10;95283.00;;;13.70
15680;BMP180;15488;48.114;11.532;2022-11-14T09:26:38;95285.00;;;13.80
15680;BMP180;15488;48.114;11.532;2022-11-14T09:29:05;95280.00;;;13.90
15680;BMP180;15488;48.114;11.532;2022-11-14T09:31:33;95281.00;;;13.90
15680;BMP180;15488;48.114;11.532;2022-11-14T09:34:03;95281.00;;;14.00
15680;BMP180;15488;48.114;11.532;2022-11-14T09:36:30;95282.00;;;14.00
15680;BMP180;15488;48.114;11.532;2022-11-14T09:38:57;95284.00;;;14.00
15680;BMP180;15488;48.114;11.532;2022-11-14T09:41:30;95293.00;;;14.10
15680;BMP180;15488;48.114;11.532;2022-11-14T09:44:20;95300.00;;;14.10
15680;BMP180;15488;48.114;11.532;2022-11-14T09:46:56;95290.00;;;14.20
15680;BMP180;15488;48.114;11.532;2022-11-14T09:49:30;95296.00;;;14.30
15680;BMP180;15488;48.114;11.532;2022-11-14T09:52:04;95302.00;;;14.30
15680;BMP180;15488;48.114;11.532;2022-11-14T09:54:41;95298.00;;;14.40
15680;BMP180;15488;48.114;11.532;2022-11-14T09:57:14;95307.00;;;14.50
15680;BMP180;15488;48.114;11.532;2022-11-14T09:59:42;95313.00;;;14.60
15680;BMP180;15488;48.114;11.532;2022-11-14T10:02:24;95297.00;;;14.60
15680;BMP180;15488;48.114;11.532;2022-11-14T10:05:06;95297.00;;;14.70
15680;BMP180;15488;48.114;11.532;2022-11-14T10:07:43;95298.00;;;14.80
15680;BMP180;15488;48.114;11.532;2022-11-14T10:10:20;95292.00;;;14.90
15680;BMP180;15488;48.114;11.532;2022-11-14T10:13:00;95291.00;;;15.00
15680;BMP180;15488;48.114;11.532;2022-11-14T10:15:32;95298.00;;;15.10
15680;BMP180;15488;48.114;11.532;2022-11-14T10:18:14;95306.00;;;15.10
15680;BMP180;15488;48.114;11.532;2022-11-14T10:20:53;95310.00;;;15.20
15680;BMP180;15488;48.114;11.532;2022-11-14T10:23:31;95302.00;;;15.30
15680;BMP180;15488;48.114;11.532;2022-11-14T10:26:08;95299.00;;;15.40
15680;BMP180;15488;48.114;11.532;2022-11-14T10:28:47;95299.00;;;15.40
15680;BMP180;15488;48.114;11.532;2022-11-14T10:31:25;95299.00;;;15.50
15680;BMP180;15488;48.114;11.532;2022-11-14T10:34:01;95293.00;;;15.60
15680;BMP180;15488;48.114;11.532;2022-11-14T10:36:46;95290.00;;;15.70
15680;BMP180;15488;48.114;11.532;2022-11-14T10:39:18;95293.00;;;15.80
15680;BMP180;15488;48.114;11.532;2022-11-14T10:41:51;95121.00;;;15.90
15680;BMP180;15488;48.114;11.532;2022-11-14T10:44:23;95293.00;;;15.90
15680;BMP180;15488;48.114;11.532;2022-11-14T10:46:55;95291.00;;;16.00
15680;BMP180;15488;48.114;11.532;2022-11-14T10:49:28;95293.00;;;16.10
15680;BMP180;15488;48.114;11.532;2022-11-14T10:52:00;95295.00;;;16.20
15680;BMP180;15488;48.114;11.532;2022-11-14T10:54:33;95296.00;;;16.30
15680;BMP180;15488;48.114;11.532;2022-11-14T10:57:02;95301.00;;;16.30
15680;BMP180;15488;48.114;11.532;2022-11-14T10:59:30;95303.00;;;16.40
15680;BMP180;15488;48.114;11.532;2022-11-14T11:01:58;95307.00;;;16.50
15680;BMP180;15488;48.114;11.532;2022-11-14T11:04:27;95308.00;;;16.60
15680;BMP180;15488;48.114;11.532;2022-11-14T11:07:16;95311.00;;;16.60
15680;BMP180;15488;48.114;11.532;2022-11-14T11:09:59;95317.00;;;16.70
15680;BMP180;15488;48.114;11.532;2022-11-14T11:12:49;95322.00;;;16.80
15680;BMP180;15488;48.114;11.532;2022-11-14T11:15:19;95322.00;;;16.90
15680;BMP180;15488;48.114;11.532;2022-11-14T11:17:54;95329.00;;;16.90
15680;BMP180;15488;48.114;11.532;2022-11-14T11:20:29;95321.00;;;17.00
15680;BMP180;15488;48.114;11.532;2022-11-14T11:23:06;95333.00;;;17.00
15680;BMP180;15488;48.114;11.532;2022-11-14T11:25:40;95334.00;;;17.10
15680;BMP180;15488;48.114;11.532;2022-11-14T11:28:12;95350.00;;;17.10
15680;BMP180;15488;48.114;11.532;2022-11-14T11:30:53;95362.00;;;17.20
15680;BMP180;15488;48.114;11.532;2022-11-14T11:33:23;95367.00;;;17.20
15680;BMP180;15488;48.114;11.532;2022-11-14T11:35:53;95369.00;;;17.30
15680;BMP180;15488;48.114;11.532;2022-11-14T11:38:25;95371.00;;;16.70
15680;BMP180;15488;48.114;11.532;2022-11-14T11:40:59;95364.00;;;17.30
15680;BMP180;15488;48.114;11.532;2022-11-14T11:43:34;95363.00;;;17.40
15680;BMP180;15488;48.114;11.532;2022-11-14T11:46:05;95371.00;;;17.40
15680;BMP180;15488;48.114;11.532;2022-11-14T11:48:38;95365.00;;;17.40
15680;BMP180;15488;48.114;11.532;2022-11-14T11:51:12;95367.00;;;17.40
15680;BMP180;15488;48.114;11.532;2022-11-14T11:53:47;95375.00;;;17.50
15680;BMP180;15488;48.114;11.532;2022-11-14T11:56:20;95379.00;;;17.50
15680;BMP180;15488;48.114;11.532;2022-11-14T11:58:51;95363.00;;;17.60
15680;BMP180;15488;48.114;11.532;2022-11-14T12:01:21;95366.00;;;17.60
15680;BMP180;15488;48.114;11.532;2022-11-14T12:03:51;95362.00;;;17.70
15680;BMP180;15488;48.114;11.532;2022-11-14T12:06:20;95365.00;;;17.80
15680;BMP180;15488;48.114;11.532;2022-11-14T12:09:09;95367.00;;;17.80
15680;BMP180;15488;48.114;11.532;2022-11-14T12:11:42;95364.00;;;17.90
15680;BMP180;15488;48.114;11.532;2022-11-14T12:14:33;95360.00;;;17.90
15680;BMP180;15488;48.114;11.532;2022-11-14T12:17:28;95362.00;;;18.00
15680;BMP180;15488;48.114;11.532;2022-11-14T12:23:20;95369.00;;;18.20
15680;BMP180;15488;48.114;11.532;2022-11-14T12:26:03;95374.00;;;18.20
15680;BMP180;15488;48.114;11.532;2022-11-14T12:28:45;95370.00;;;18.30
15680;BMP180;15488;48.114;11.532;2022-11-14T12:31:22;95382.00;;;18.40
15680;BMP180;15488;48.114;11.532;2022-11-14T12:33:55;95380.00;;;18.40
15680;BMP180;15488;48.114;11.532;2022-11-14T12:36:28;95388.00;;;18.50
15680;BMP180;15488;48.114;11.532;2022-11-14T12:38:58;95392.00;;;18.60
15680;BMP180;15488;48.114;11.532;2022-11-14T12:41:29;95389.00;;;18.70
15680;BMP180;15488;48.114;11.532;2022-11-14T12:44:17;95390.00;;;18.80
15680;BMP180;15488;48.114;11.532;2022-11-14T12:47:16;95384.00;;;18.90
15680;BMP180;15488;48.114;11.532;2022-11-14T12:52:48;95392.00;;;19.10
15680;BMP180;15488;48.114;11.532;2022-11-14T12:55:52;95393.00;;;19.20
15680;BMP180;15488;48.114;11.532;2022-11-14T12:58:35;95390.00;;;19.30
15680;BMP180;15488;48.114;11.532;2022-11-14T13:04:17;95394.00;;;20.00
15680;BMP180;15488;48.114;11.532;2022-11-14T13:06:59;95396.00;;;20.40
15680;BMP180;15488;48.114;11.532;2022-11-14T13:09:38;95395.00;;;20.90
15680;BMP180;15488;48.114;11.532;2022-11-14T13:12:26;95393.00;;;21.40
15680;BMP180;15488;48.114;11.532;2022-11-14T13:15:28;95393.00;;;21.70
15680;BMP180;15488;48.114;11.532;2022-11-14T13:18:18;95393.00;;;21.90
15680;BMP180;15488;48.114;11.532;2022-11-14T13:21:05;95399.00;;;22.00
15680;BMP180;15488;48.114;11.532;2022-11-14T13:23:56;95389.00;;;22.20
15680;BMP180;15488;48.114;11.532;2022-11-14T13:26:44;95390.00;;;22.20
15680;BMP180;15488;48.114;11.532;2022-11-14T13:35:55;95381.00;;;22.20
15680;BMP180;15488;48.114;11.532;2022-11-14T13:42:03;95380.00;;;22.00
15680;BMP180;15488;48.114;11.532;2022-11-14T13:47:46;95384.00;;;21.90
15680;BMP180;15488;48.114;11.532;2022-11-14T13:50:17;95378.00;;;22.00
15680;BMP180;15488;48.114;11.532;2022-11-14T13:52:47;95387.00;;;22.20
15680;BMP180;15488;48.114;11.532;2022-11-14T13:55:20;95383.00;;;22.20
15680;BMP180;15488;48.114;11.532;2022-11-14T13:57:58;95379.00;;;22.10
15680;BMP180;15488;48.114;11.532;2022-11-14T14:00:37;95377.00;;;22.10
15680;BMP180;15488;48.114;11.532;2022-11-14T14:03:20;95380.00;;;22.30
15680;BMP180;15488;48.114;11.532;2022-11-14T14:06:00;95378.00;;;22.60
15680;BMP180;15488;48.114;11.532;2022-11-14T14:08:45;95384.00;;;23.00
15680;BMP180;15488;48.114;11.532;2022-11-14T14:11:40;95375.00;;;23.60
15680;BMP180;15488;48.114;11.532;2022-11-14T14:14:23;95371.00;;;24.10
15680;BMP180;15488;48.114;11.532;2022-11-14T14:17:01;95373.00;;;24.70
15680;BMP180;15488;48.114;11.532;2022-11-14T14:19:42;95371.00;;;25.10
15680;BMP180;15488;48.114;11.532;2022-11-14T14:22:19;95371.00;;;25.30
15680;BMP180;15488;48.114;11.532;2022-11-14T14:24:56;95373.00;;;25.20
15680;BMP180;15488;48.114;11.532;2022-11-14T14:27:31;95369.00;;;25.00
15680;BMP180;15488;48.114;11.532;2022-11-14T14:30:08;95371.00;;;24.60
15680;BMP180;15488;48.114;11.532;2022-11-14T14:32:36;95377.00;;;24.30
15680;BMP180;15488;48.114;11.532;2022-11-14T14:35:21;95373.00;;;24.00
15680;BMP180;15488;48.114;11.532;2022-11-14T14:37:53;95372.00;;;23.70
15680;BMP180;15488;48.114;11.532;2022-11-14T14:40:26;95379.00;;;23.40